Aérodrome :







RETROUVEZ-NOUS SUR...

 
LOGIN :

S'inscrire | Disclaimer

   EN    FR    IT 

 









Légende :    VFR   VFR Marginal   IFR   IFR Intensif   IFR Très Intensif
Visi : 
Plafond : 
>= 8 km
>= 3000ft
5 à 8 km
1000 à 3000 ft
1500m à 5 km
500 à 1000 ft
800 à 1500m
200 à 500 ft
< 800m
< 200 ft
Symboles :   Orages  Brouillard  Fortes neiges  Fortes précipitations  Vent > 20 kt






- Altitude de l'aérodrome : 1825 ft


K8B0 - Steven A. Bean Municipal

DERNIER METAR :
  • 131735Z AUTO 30007KT 5SM HZ SCT017 SCT022 OVC029 M11/M15 A3003 RMK AO2

METARs EXPIRÉS :
  • 131715Z AUTO 29011G16KT 4SM HZ SCT014 BKN022 OVC029 M12/M16 A3003 RMK AO2
  • 131655Z AUTO 30010G18KT 10SM SCT014 BKN021 OVC027 M11/M16 A3002 RMK AO2
  • 131635Z AUTO 30011G19KT 10SM SCT014 OVC021 M11/M16 A3001 RMK AO2
  • 131615Z AUTO 30011G16KT 260V320 5SM HZ SCT014 BKN021 OVC028 M12/M16 A3001 RMK AO2
  • 131555Z AUTO 32015G21KT 5SM HZ SCT014 BKN021 OVC027 M12/M16 A3002 RMK AO2
  • 131535Z AUTO 32015G22KT 7SM SCT016 BKN020 OVC028 M12/M16 A3001 RMK AO2
  • 131515Z AUTO 32013G22KT 7SM BKN018 BKN024 OVC036 M12/M17 A3000 RMK AO2

TAF N/A



MET'MAP, la Météo Aéronautique d'un coup d'oeil ! - Copyright ORBIFLY Décembre 2007 - Disclaimer

ORBIFLY MET'MAP TEAM :

Programmation & Développement : Alexandra Zaïnal
Conception & Développement : Baudouin d'Aumeries
Co-Programmation & Développement : Marc-Olivier Méhu
Soutien technique & logistique : Manuel Goepfert

Contact : metmap@orbifly.com




SOURCES & CREDITS :

   NOAA